Погода Кордейруна неделю

Рио-де-Жанейро, Бразилия

21 - 27 июля
  • 21июля
    Сегодня
    +10°
    +24°
    Ясно и безоблачно
    ВремяПогодаТемператураВлажностьДавлениеВетер, м/сВероятность осадков
    00:00Практически безоблачно+12°C93 %715 мм1.2 м/с3 %
    03:00Практически безоблачно+12°C95 %714 мм1.1 м/с3 %
    06:00Небольшая облачность+10°C97 %714 мм1.5 м/с5 %
    09:00Ясно и безоблачно+18°C74 %716 мм0.2 м/с3 %
    12:00Практически безоблачно+23°C55 %716 мм1.3 м/с4 %
    15:00Ясно и безоблачно+24°C49 %714 мм1.4 м/с5 %
    18:00Ясно и безоблачно+17°C69 %714 мм1.9 м/с5 %
    21:00Ясно и безоблачно+14°C86 %714 мм1.3 м/с5 %
  • 22июля
    Понедельник
    +11°
    +27°
    Ясно и безоблачно
    ВремяПогодаТемператураВлажностьДавлениеВетер, м/сВероятность осадков
    00:00Ясно и безоблачно+13°C88 %715 мм0.8 м/с5 %
    03:00Ясно и безоблачно+12°C91 %713 мм1.2 м/с5 %
    06:00Ясно и безоблачно+11°C96 %713 мм1.4 м/с5 %
    09:00Ясно и безоблачно+19°C74 %715 мм0.5 м/с5 %
    12:00Ясно и безоблачно+26°C53 %715 мм1.5 м/с5 %
    15:00Ясно и безоблачно+27°C49 %714 мм0.9 м/с5 %
    18:00Практически безоблачно+20°C71 %714 мм2.0 м/с5 %
    21:00Ясно и безоблачно+17°C82 %714 мм1.7 м/с5 %
  • 23июля
    Вторник
    +10°
    +26°
    Ясно и безоблачно
    ВремяПогодаТемператураВлажностьДавлениеВетер, м/сВероятность осадков
    00:00Ясно и безоблачно+13°C81 %714 мм1.6 м/с5 %
    03:00Ясно и безоблачно+12°C80 %713 мм1.5 м/с5 %
    06:00Ясно и безоблачно+11°C84 %714 мм1.5 м/с5 %
    09:00Ясно и безоблачно+20°C57 %717 мм0.3 м/с5 %
    12:00Ясно и безоблачно+25°C51 %716 мм1.4 м/с3 %
    15:00Ясно и безоблачно+26°C48 %715 мм1.7 м/с5 %
    18:00Ясно и безоблачно+19°C69 %715 мм2.6 м/с5 %
    21:00Ясно и безоблачно+15°C90 %716 мм1.2 м/с5 %
  • 24июля
    Среда
    +11°
    +26°
    Практически безоблачно
    ВремяПогодаТемператураВлажностьДавлениеВетер, м/сВероятность осадков
    00:00Ясно и безоблачно+13°C95 %715 мм1.0 м/с5 %
    03:00Небольшая облачность+12°C98 %715 мм1.2 м/с5 %
    06:00Облачно с прояснениями+11°C100 %715 мм1.5 м/с5 %
    09:00Ясно и безоблачно+20°C74 %717 мм0.2 м/с5 %
    12:00Ясно и безоблачно+24°C55 %717 мм2.3 м/с4 %
    15:00Практически безоблачно+25°C47 %716 мм2.1 м/с5 %
    18:00Ясно и безоблачно+19°C60 %716 мм1.2 м/с5 %
    21:00Ясно и безоблачно+15°C79 %715 мм1.3 м/с5 %
Мы используем cookies
Соглашаюсь